createdAt,value
2022-09-20T00:01:38.196Z,95755.27
2022-09-20T00:04:07.162Z,95758.02
2022-09-20T00:06:35.958Z,95757.49
2022-09-20T00:09:05.708Z,95758.94
2022-09-20T00:11:35.377Z,95761.89
2022-09-20T00:14:30.620Z,95762.13
2022-09-20T00:16:59.279Z,95764.74
2022-09-20T00:19:27.865Z,95761.98
2022-09-20T00:21:55.995Z,95760.42
2022-09-20T00:24:25.634Z,95762.90
2022-09-20T00:26:55.314Z,95768.03
2022-09-20T00:29:23.952Z,95771.44
2022-09-20T00:31:54.769Z,95771.13
2022-09-20T00:34:44.729Z,95768.33
2022-09-20T00:37:16.311Z,95769.15
2022-09-20T00:39:52.740Z,95769.16
2022-09-20T00:42:28.465Z,95770.59
2022-09-20T00:45:04.236Z,95769.91
2022-09-20T00:47:45.179Z,95766.64
2022-09-20T00:50:27.232Z,95763.80
2022-09-20T00:53:15.696Z,95763.34
2022-09-20T00:56:44.609Z,95762.49
2022-09-20T00:59:41.441Z,95760.15
2022-09-20T01:02:25.584Z,95758.14
2022-09-20T01:04:54.979Z,95752.52
2022-09-20T01:07:25.089Z,95752.61
2022-09-20T01:09:53.645Z,95753.95
2022-09-20T01:12:26.855Z,95751.70
2022-09-20T01:14:56.496Z,95753.56
2022-09-20T01:17:29.506Z,95750.75
2022-09-20T01:20:16.041Z,95748.24
2022-09-20T01:22:44.301Z,95742.42
2022-09-20T01:25:34.396Z,95739.69
2022-09-20T01:28:02.663Z,95737.70
2022-09-20T01:30:44.152Z,95737.48
2022-09-20T01:33:31.324Z,95733.10
2022-09-20T01:36:04.145Z,95732.34
2022-09-20T01:38:40.865Z,95734.20
2022-09-20T01:41:15.277Z,95732.86
2022-09-20T01:43:59.132Z,95735.34
2022-09-20T01:46:32.441Z,95732.34
2022-09-20T01:49:37.808Z,95731.23
2022-09-20T01:52:20.929Z,95733.07
2022-09-20T01:55:13.951Z,95733.52
2022-09-20T01:58:00.825Z,95732.15
2022-09-20T02:04:53.565Z,95735.02
2022-09-20T02:07:40.733Z,95739.16
2022-09-20T02:10:23.317Z,95738.40
2022-09-20T02:12:58.997Z,95746.92
2022-09-20T02:15:45.751Z,95748.92
2022-09-20T02:18:46.377Z,95746.75
2022-09-20T02:21:33.074Z,95748.93
2022-09-20T02:24:38.446Z,95749.45
2022-09-20T02:27:13.081Z,95750.80
2022-09-20T02:30:19.799Z,95753.36
2022-09-20T02:32:59.367Z,95757.34
2022-09-20T02:35:40.431Z,95761.81
2022-09-20T02:38:46.350Z,95762.67
2022-09-20T02:41:22.269Z,95762.16
2022-09-20T02:44:00.544Z,95761.66
2022-09-20T02:46:45.846Z,95764.09
2022-09-20T02:49:52.356Z,95765.01
2022-09-20T02:53:08.772Z,95765.70
2022-09-20T02:56:04.884Z,95761.76
2022-09-20T02:59:22.249Z,95765.05
2022-09-20T03:02:06.539Z,95766.01
2022-09-20T03:05:05.034Z,95767.67
2022-09-20T03:07:42.107Z,95768.99
2022-09-20T03:10:36.740Z,95769.02
2022-09-20T03:13:16.280Z,95769.05
2022-09-20T03:15:58.130Z,95772.48
2022-09-20T03:18:29.198Z,95771.06
2022-09-20T03:21:12.200Z,95767.04
2022-09-20T03:23:52.372Z,95771.06
2022-09-20T03:26:49.502Z,95769.67
2022-09-20T03:29:29.488Z,95770.02
2022-09-20T03:32:16.277Z,95772.43
2022-09-20T03:34:59.215Z,95770.50
2022-09-20T03:37:46.115Z,95768.85
2022-09-20T03:41:09.335Z,95772.84
2022-09-20T03:43:37.879Z,95773.44
2022-09-20T03:46:28.772Z,95774.30
2022-09-20T03:49:54.564Z,95781.55
2022-09-20T03:53:05.659Z,95781.62
2022-09-20T03:55:59.383Z,95780.62
2022-09-20T03:59:08.492Z,95782.21
2022-09-20T04:02:23.242Z,95781.52
2022-09-20T04:04:58.587Z,95785.58
2022-09-20T04:07:51.097Z,95789.58
2022-09-20T04:10:44.488Z,95791.15
2022-09-20T04:13:24.393Z,95792.63
2022-09-20T04:17:10.011Z,95792.51
2022-09-20T04:20:04.329Z,95794.67
2022-09-20T04:22:33.065Z,95799.02
2022-09-20T04:25:22.857Z,95801.45
2022-09-20T04:27:57.710Z,95806.08
2022-09-20T04:30:34.615Z,95811.98
2022-09-20T04:33:58.811Z,95812.08
2022-09-20T04:37:01.106Z,95812.27
2022-09-20T04:40:00.512Z,95814.30
2022-09-20T04:43:43.744Z,95812.17
2022-09-20T04:46:52.734Z,95806.27
2022-09-20T04:49:34.381Z,95807.98
2022-09-20T04:52:11.225Z,95810.95
2022-09-20T04:55:10.491Z,95816.27
2022-09-20T04:58:09.370Z,95819.44
2022-09-20T05:01:01.099Z,95817.78
2022-09-20T05:04:08.268Z,95819.63
2022-09-20T05:06:51.000Z,95818.61
2022-09-20T05:09:28.382Z,95820.13
2022-09-20T05:12:03.318Z,95826.17
2022-09-20T05:14:49.755Z,95825.08
2022-09-20T05:17:37.404Z,95829.17
2022-09-20T05:20:05.339Z,95830.93
2022-09-20T05:23:01.033Z,95827.02
2022-09-20T05:25:47.192Z,95827.85
2022-09-20T05:28:33.779Z,95824.50
2022-09-20T05:31:11.894Z,95826.41
2022-09-20T05:33:39.735Z,95827.21
2022-09-20T05:36:07.593Z,95829.57
2022-09-20T05:38:47.451Z,95831.73
2022-09-20T05:41:31.911Z,95826.36
2022-09-20T05:44:16.384Z,95824.40
2022-09-20T05:47:24.873Z,95829.14
2022-09-20T05:50:31.215Z,95832.14
2022-09-20T05:53:43.445Z,95833.98
2022-09-20T05:56:37.412Z,95833.67
2022-09-20T05:59:17.301Z,95834.90
2022-09-20T06:02:14.294Z,95837.06
2022-09-20T06:05:06.936Z,95836.70
2022-09-20T06:07:51.750Z,95834.05
2022-09-20T06:10:47.538Z,95835.48
2022-09-20T06:13:24.428Z,95834.47
2022-09-20T06:16:02.201Z,95832.73
2022-09-20T06:18:36.834Z,95832.20
2022-09-20T06:21:14.138Z,95833.48
2022-09-20T06:23:42.415Z,95834.50
2022-09-20T06:26:27.892Z,95838.83
2022-09-20T06:29:03.435Z,95836.94
2022-09-20T06:31:31.358Z,95838.57
2022-09-20T06:34:05.793Z,95838.20
2022-09-20T06:36:55.251Z,95840.03
2022-09-20T06:40:08.203Z,95845.61
2022-09-20T06:42:36.229Z,95841.23
2022-09-20T06:45:04.907Z,95843.00
2022-09-20T06:47:35.739Z,95841.88
2022-09-20T06:50:07.160Z,95839.86
2022-09-20T06:52:35.779Z,95841.89
2022-09-20T06:55:07.453Z,95846.27
2022-09-20T06:57:38.525Z,95847.05
2022-09-20T07:00:10.256Z,95849.83
2022-09-20T07:02:38.637Z,95847.25
2022-09-20T07:05:07.672Z,95850.83
2022-09-20T07:07:35.589Z,95850.71
2022-09-20T07:10:03.717Z,95853.25
2022-09-20T07:12:34.028Z,95853.77
2022-09-20T07:15:02.417Z,95855.16
2022-09-20T07:17:30.272Z,95853.41
2022-09-20T07:19:58.149Z,95854.74
2022-09-20T07:22:27.187Z,95853.63
2022-09-20T07:24:55.351Z,95857.14
2022-09-20T07:27:26.375Z,95859.46
2022-09-20T07:29:56.705Z,95856.54
2022-09-20T07:32:24.892Z,95861.73
2022-09-20T07:34:52.892Z,95861.06
2022-09-20T07:37:20.744Z,95859.27
2022-09-20T07:39:48.664Z,95858.00
2022-09-20T07:42:16.884Z,95859.44
2022-09-20T07:44:45.002Z,95861.84
2022-09-20T07:47:14.158Z,95865.19
2022-09-20T07:49:42.013Z,95862.59
2022-09-20T07:52:11.314Z,95861.69
2022-09-20T07:54:40.022Z,95862.00
2022-09-20T07:57:08.225Z,95857.56
2022-09-20T07:59:36.025Z,95857.61
2022-09-20T08:02:04.577Z,95859.02
2022-09-20T08:04:32.508Z,95858.23
2022-09-20T08:07:01.604Z,95857.24
2022-09-20T08:09:29.612Z,95857.23
2022-09-20T08:11:58.450Z,95857.29
2022-09-20T08:14:26.349Z,95856.98
2022-09-20T08:16:58.359Z,95854.70
2022-09-20T08:19:26.841Z,95858.45
2022-09-20T08:21:55.080Z,95862.00
2022-09-20T08:24:22.998Z,95862.80
2022-09-20T08:26:50.803Z,95864.27
2022-09-20T08:29:18.694Z,95866.58
2022-09-20T08:31:47.267Z,95868.31
2022-09-20T08:34:17.716Z,95868.18
2022-09-20T08:36:47.255Z,95870.96
2022-09-20T08:42:22.343Z,95864.77
2022-09-20T08:44:59.335Z,95860.00
2022-09-20T08:47:31.257Z,95861.48
2022-09-20T08:50:00.927Z,95855.25
2022-09-20T08:52:37.146Z,95850.88
2022-09-20T08:55:17.557Z,95848.54
2022-09-20T08:57:53.057Z,95849.80
2022-09-20T09:00:26.618Z,95845.45
2022-09-20T09:02:57.184Z,95838.14
2022-09-20T09:05:32.773Z,95839.58
2022-09-20T09:08:09.124Z,95840.85
2022-09-20T09:10:42.875Z,95841.09
2022-09-20T09:13:26.317Z,95840.14
2022-09-20T09:15:57.924Z,95844.81
2022-09-20T09:18:49.312Z,95843.45
2022-09-20T09:21:18.539Z,95839.70
2022-09-20T09:24:02.770Z,95835.52
2022-09-20T09:26:40.118Z,95839.57
2022-09-20T09:29:18.887Z,95843.86
2022-09-20T09:31:49.384Z,95839.53
2022-09-20T09:34:38.922Z,95837.98
2022-09-20T09:37:26.409Z,95837.58
2022-09-20T09:40:17.793Z,95840.46
2022-09-20T09:42:54.622Z,95840.86
2022-09-20T09:45:33.206Z,95848.71
2022-09-20T09:48:02.304Z,95848.71
2022-09-20T09:50:34.134Z,95846.08
2022-09-20T09:53:15.394Z,95844.30
2022-09-20T09:56:18.109Z,95847.27
2022-09-20T09:59:10.807Z,95848.49
2022-09-20T10:02:00.194Z,95848.07
2022-09-20T10:04:37.327Z,95851.83
2022-09-20T10:07:05.108Z,95849.56
2022-09-20T10:09:42.946Z,95853.94
2022-09-20T10:12:46.141Z,95861.19
2022-09-20T10:15:44.798Z,95864.27
2022-09-20T10:18:24.657Z,95858.98
2022-09-20T10:21:07.977Z,95858.31
2022-09-20T10:24:13.205Z,95859.42
2022-09-20T10:26:56.132Z,95862.81
2022-09-20T10:29:30.319Z,95864.50
2022-09-20T10:32:01.176Z,95864.41
2022-09-20T10:34:43.988Z,95868.35
2022-09-20T10:37:37.079Z,95870.05
2022-09-20T10:40:50.848Z,95871.42
2022-09-20T10:43:36.462Z,95874.22
2022-09-20T10:49:04.043Z,95871.83
2022-09-20T10:51:47.499Z,95872.32
2022-09-20T10:54:24.009Z,95869.33
2022-09-20T10:57:03.063Z,95868.08
2022-09-20T10:59:40.082Z,95870.38
2022-09-20T11:02:16.719Z,95871.26
2022-09-20T11:04:50.564Z,95871.79
2022-09-20T11:07:42.972Z,95871.37
2022-09-20T11:10:29.602Z,95873.52
2022-09-20T11:13:02.488Z,95869.64
2022-09-20T11:15:39.982Z,95870.48
2022-09-20T11:18:23.472Z,95870.58
2022-09-20T11:21:08.352Z,95876.27
2022-09-20T11:23:44.516Z,95874.59
2022-09-20T11:26:22.639Z,95878.66
2022-09-20T11:28:55.126Z,95878.02
2022-09-20T11:31:43.031Z,95880.62
2022-09-20T11:34:29.861Z,95876.63
2022-09-20T11:37:03.449Z,95869.27
2022-09-20T11:39:46.268Z,95865.33
2022-09-20T11:42:21.353Z,95867.95
2022-09-20T11:44:51.041Z,95863.38
2022-09-20T11:47:53.368Z,95864.84
2022-09-20T11:50:46.019Z,95867.52
2022-09-20T11:53:32.128Z,95867.27
2022-09-20T11:56:18.252Z,95870.06
2022-09-20T11:58:48.372Z,95870.27
2022-09-20T12:01:28.569Z,95873.86
2022-09-20T12:04:28.272Z,95869.92
2022-09-20T12:07:10.327Z,95869.41
2022-09-20T12:09:44.029Z,95867.20
2022-09-20T12:12:23.833Z,95867.95
2022-09-20T12:15:00.763Z,95870.70
2022-09-20T12:17:47.084Z,95871.30
2022-09-20T12:20:33.175Z,95872.66
2022-09-20T12:23:42.360Z,95878.42
2022-09-20T12:26:14.025Z,95879.27
2022-09-20T12:28:44.670Z,95877.44
2022-09-20T12:31:18.803Z,95879.86
2022-09-20T12:34:22.308Z,95879.39
2022-09-20T12:36:56.162Z,95877.39
2022-09-20T12:39:31.711Z,95876.05
2022-09-20T12:42:07.882Z,95874.80
2022-09-20T12:44:37.932Z,95879.05
2022-09-20T12:47:10.507Z,95881.11
2022-09-20T12:50:06.484Z,95878.55
2022-09-20T12:53:02.363Z,95882.90
2022-09-20T12:55:41.303Z,95881.80
2022-09-20T12:58:14.431Z,95883.17
2022-09-20T13:00:45.821Z,95883.34
2022-09-20T13:03:36.669Z,95884.08
2022-09-20T13:06:05.807Z,95884.88
2022-09-20T13:08:50.579Z,95886.78
2022-09-20T13:11:30.498Z,95889.02
2022-09-20T13:14:07.596Z,95887.42
2022-09-20T13:16:47.620Z,95892.96
2022-09-20T13:19:29.753Z,95893.89
2022-09-20T13:22:00.624Z,95891.45
2022-09-20T13:24:33.029Z,95893.21
2022-09-20T13:27:06.958Z,95895.98
2022-09-20T13:29:40.810Z,95896.95
2022-09-20T13:32:20.720Z,95893.95
2022-09-20T13:35:04.976Z,95892.11
2022-09-20T13:37:33.831Z,95894.95
2022-09-20T13:40:04.020Z,95898.05
2022-09-20T13:42:35.796Z,95897.90
2022-09-20T13:45:04.826Z,95901.66
2022-09-20T13:47:32.770Z,95900.59
2022-09-20T13:50:20.401Z,95896.18
2022-09-20T13:52:50.877Z,95897.59
2022-09-20T13:55:39.159Z,95895.23
2022-09-20T13:58:16.151Z,95893.48
2022-09-20T14:00:50.458Z,95892.90
2022-09-20T14:03:21.027Z,95891.65
2022-09-20T14:06:12.405Z,95889.80
2022-09-20T14:08:47.182Z,95888.95
2022-09-20T14:11:31.499Z,95890.41
2022-09-20T14:14:02.985Z,95890.08
2022-09-20T14:16:33.041Z,95891.98
2022-09-20T14:19:03.199Z,95890.42
2022-09-20T14:21:35.703Z,95891.16
2022-09-20T14:24:08.003Z,95891.86
2022-09-20T14:26:38.628Z,95895.76
2022-09-20T14:29:34.355Z,95900.87
2022-09-20T14:32:14.584Z,95900.33
2022-09-20T14:34:43.759Z,95897.44
2022-09-20T14:37:23.619Z,95899.95
2022-09-20T14:40:04.845Z,95901.92
2022-09-20T14:42:42.569Z,95903.50
2022-09-20T14:45:30.523Z,95904.86
2022-09-20T14:48:09.590Z,95904.01
2022-09-20T14:50:42.257Z,95902.65
2022-09-20T14:53:10.914Z,95902.09
2022-09-20T14:55:42.311Z,95904.77
2022-09-20T14:58:12.351Z,95903.02
2022-09-20T15:01:03.610Z,95907.25
2022-09-20T15:03:40.253Z,95908.54
2022-09-20T15:06:13.605Z,95910.05
2022-09-20T15:08:46.357Z,95912.59
2022-09-20T15:11:18.810Z,95911.77
2022-09-20T15:13:47.002Z,95913.56
2022-09-20T15:16:17.944Z,95915.70
2022-09-20T15:18:46.781Z,95912.61
2022-09-20T15:21:15.225Z,95914.88
2022-09-20T15:23:43.972Z,95910.09
2022-09-20T15:26:14.304Z,95911.58
2022-09-20T15:28:42.319Z,95914.20
2022-09-20T15:31:10.526Z,95918.91
2022-09-20T15:33:38.423Z,95920.48
2022-09-20T15:36:06.913Z,95923.34
2022-09-20T15:38:34.812Z,95927.04
2022-09-20T15:41:07.503Z,95929.83
2022-09-20T15:43:35.687Z,95928.95
2022-09-20T15:46:24.583Z,95927.77
2022-09-20T15:48:54.544Z,95925.58
2022-09-20T15:51:22.992Z,95925.44
2022-09-20T15:54:00.282Z,95928.56
2022-09-20T15:56:33.745Z,95928.20
2022-09-20T15:59:06.637Z,95929.76
2022-09-20T16:01:38.187Z,95930.71
2022-09-20T16:04:09.978Z,95929.25
2022-09-20T16:06:40.087Z,95928.66
2022-09-20T16:09:08.812Z,95928.61
2022-09-20T16:11:37.515Z,95928.01
2022-09-20T16:14:06.372Z,95926.15
2022-09-20T16:16:40.040Z,95927.95
2022-09-20T16:19:17.625Z,95933.32
2022-09-20T16:21:53.606Z,95933.52
2022-09-20T16:24:26.977Z,95936.70
2022-09-20T16:26:55.125Z,95942.29
2022-09-20T16:29:23.616Z,95943.20
2022-09-20T16:31:52.878Z,95941.29
2022-09-20T16:34:22.173Z,95944.27
2022-09-20T16:36:53.865Z,95945.88
2022-09-20T16:39:29.105Z,95948.89
2022-09-20T16:42:03.738Z,95951.41
2022-09-20T16:44:34.068Z,95953.27
2022-09-20T16:47:03.670Z,95956.24
2022-09-20T16:49:31.483Z,95956.02
2022-09-20T16:51:59.622Z,95961.48
2022-09-20T16:54:31.799Z,95962.12
2022-09-20T16:57:00.355Z,95961.92
2022-09-20T16:59:28.311Z,95959.92
2022-09-20T17:01:56.408Z,95961.23
2022-09-20T17:04:24.534Z,95961.09
2022-09-20T17:06:52.842Z,95961.60
2022-09-20T17:09:21.043Z,95962.71
2022-09-20T17:11:50.354Z,95964.98
2022-09-20T17:14:20.631Z,95966.71
2022-09-20T17:16:49.523Z,95969.04
2022-09-20T17:19:19.885Z,95973.65
2022-09-20T17:21:51.073Z,95978.26
2022-09-20T17:24:21.247Z,95978.14
2022-09-20T17:26:50.880Z,95976.05
2022-09-20T17:29:20.410Z,95980.48
2022-09-20T17:31:55.629Z,95979.02
2022-09-20T17:34:25.654Z,95983.17
2022-09-20T17:36:56.719Z,95984.52
2022-09-20T17:39:25.024Z,95983.39
2022-09-20T17:41:53.756Z,95989.13
2022-09-20T17:44:21.740Z,95985.34
2022-09-20T17:46:50.916Z,95983.64
2022-09-20T17:49:21.584Z,95987.42
2022-09-20T17:51:55.132Z,95989.41
2022-09-20T17:54:24.576Z,95991.45
2022-09-20T17:56:56.068Z,95990.15
2022-09-20T17:59:24.749Z,95991.73
2022-09-20T18:01:54.641Z,95996.27
2022-09-20T18:04:25.101Z,95996.71
2022-09-20T18:06:54.630Z,96003.40
2022-09-20T18:09:25.383Z,95999.68
2022-09-20T18:11:55.409Z,96002.75
2022-09-20T18:14:27.603Z,96006.03
2022-09-20T18:17:00.906Z,96009.48
2022-09-20T18:19:33.903Z,96010.04
2022-09-20T18:22:02.993Z,96011.55
2022-09-20T18:24:31.739Z,96015.05
2022-09-20T18:27:01.035Z,96014.90
2022-09-20T18:29:33.513Z,96014.95
2022-09-20T18:32:01.602Z,96014.90
2022-09-20T18:34:33.530Z,96018.05
2022-09-20T18:37:03.942Z,96021.72
2022-09-20T18:39:33.767Z,96021.56
2022-09-20T18:42:02.716Z,96023.20
2022-09-20T18:44:34.390Z,96027.39
2022-09-20T18:47:06.712Z,96028.12
2022-09-20T18:49:41.105Z,96027.24
2022-09-20T18:52:12.318Z,96028.45
2022-09-20T18:54:40.928Z,96028.02
2022-09-20T18:57:10.556Z,96026.38
2022-09-20T18:59:40.412Z,96027.63
2022-09-20T19:02:41.934Z,96030.20
2022-09-20T19:05:34.000Z,96031.73
2022-09-20T19:08:34.474Z,96034.85
2022-09-20T19:11:12.783Z,96035.55
2022-09-20T19:13:48.010Z,96039.61
2022-09-20T19:16:34.412Z,96042.77
2022-09-20T19:19:16.854Z,96042.89
2022-09-20T19:21:56.815Z,96039.20
2022-09-20T19:25:10.477Z,96038.61
2022-09-20T19:27:38.854Z,96044.41
2022-09-20T19:30:08.009Z,96046.00
2022-09-20T19:32:36.336Z,96045.00
2022-09-20T19:35:04.621Z,96043.30
2022-09-20T19:38:00.514Z,96044.19
2022-09-20T19:40:52.059Z,96045.29
2022-09-20T19:43:42.280Z,96046.84
2022-09-20T19:46:28.807Z,96050.35
2022-09-20T19:49:15.402Z,96054.31
2022-09-20T19:51:44.968Z,96051.45
2022-09-20T19:54:15.173Z,96054.96
2022-09-20T19:56:59.607Z,96050.48
2022-09-20T19:59:28.203Z,96051.04
2022-09-20T20:01:56.605Z,96052.17
2022-09-20T20:04:24.825Z,96052.58
2022-09-20T20:07:07.812Z,96056.40
2022-09-20T20:09:55.012Z,96056.64
2022-09-20T20:12:46.164Z,96060.22
2022-09-20T20:15:46.362Z,96063.20
2022-09-20T20:18:41.709Z,96056.77
2022-09-20T20:21:21.581Z,96054.11
2022-09-20T20:23:52.361Z,96053.41
2022-09-20T20:26:27.046Z,96056.23
2022-09-20T20:28:54.979Z,96056.10
2022-09-20T20:31:23.466Z,96054.77
2022-09-20T20:33:51.748Z,96057.66
2022-09-20T20:36:19.672Z,96060.34
2022-09-20T20:38:50.754Z,96059.47
2022-09-20T20:41:21.359Z,96065.55
2022-09-20T20:43:56.374Z,96068.33
2022-09-20T20:46:25.140Z,96065.65
2022-09-20T20:48:53.247Z,96064.46
2022-09-20T20:51:22.972Z,96065.74
2022-09-20T20:53:52.870Z,96064.83
2022-09-20T20:56:26.367Z,96063.42
2022-09-20T20:58:56.170Z,96062.23
2022-09-20T21:01:46.077Z,96060.35
2022-09-20T21:04:15.843Z,96061.58
2022-09-20T21:06:44.194Z,96063.13
2022-09-20T21:09:13.498Z,96064.40
2022-09-20T21:11:44.476Z,96066.39
2022-09-20T21:14:13.157Z,96066.21
2022-09-20T21:16:43.414Z,96066.18
2022-09-20T21:19:15.197Z,96062.61
2022-09-20T21:21:45.373Z,96062.67
2022-09-20T21:24:17.307Z,96063.35
2022-09-20T21:26:46.627Z,96059.70
2022-09-20T21:29:16.220Z,96061.21
2022-09-20T21:31:46.627Z,96064.42
2022-09-20T21:34:16.240Z,96066.81
2022-09-20T21:36:45.211Z,96062.65
2022-09-20T21:39:13.608Z,96068.00
2022-09-20T21:41:41.591Z,96068.39
2022-09-20T21:44:12.390Z,96066.71
2022-09-20T21:46:42.064Z,96066.39
2022-09-20T21:49:12.120Z,96068.80
2022-09-20T21:51:42.644Z,96067.70
2022-09-20T21:54:11.570Z,96063.77
2022-09-20T21:56:40.998Z,96065.06
2022-09-20T21:59:09.554Z,96068.15
2022-09-20T22:01:40.443Z,96069.05
2022-09-20T22:04:11.322Z,96068.66
2022-09-20T22:06:42.879Z,96068.14
2022-09-20T22:09:17.978Z,96068.33
2022-09-20T22:11:48.061Z,96066.42
2022-09-20T22:14:19.762Z,96063.69
2022-09-20T22:16:51.442Z,96064.99
2022-09-20T22:19:19.462Z,96061.61
2022-09-20T22:21:49.869Z,96064.70
2022-09-20T22:24:18.945Z,96060.45
2022-09-20T22:26:49.678Z,96057.49
2022-09-20T22:29:18.473Z,96054.91
2022-09-20T22:31:50.134Z,96057.88
2022-09-20T22:34:20.960Z,96060.64
2022-09-20T22:36:49.697Z,96060.92
2022-09-20T22:39:18.051Z,96060.84
2022-09-20T22:41:48.183Z,96058.33
2022-09-20T22:44:16.600Z,96063.34
2022-09-20T22:46:44.571Z,96060.48
2022-09-20T22:49:12.763Z,96061.38
2022-09-20T22:51:40.854Z,96061.70
2022-09-20T22:54:13.320Z,96064.22
2022-09-20T22:56:44.005Z,96067.13
2022-09-20T22:59:14.236Z,96070.33
2022-09-20T23:01:45.349Z,96069.77
2022-09-20T23:04:19.087Z,96073.83
2022-09-20T23:06:57.103Z,96073.76
2022-09-20T23:09:27.518Z,96075.55
2022-09-20T23:11:56.335Z,96076.22
2022-09-20T23:14:24.407Z,96077.31
2022-09-20T23:16:53.193Z,96077.69
2022-09-20T23:19:21.243Z,96076.98
2022-09-20T23:21:49.179Z,96075.50
2022-09-20T23:24:17.310Z,96073.72
2022-09-20T23:26:45.301Z,96075.23
2022-09-20T23:29:15.525Z,96077.05
2022-09-20T23:31:46.424Z,96076.30
2022-09-20T23:34:17.400Z,96074.63
2022-09-20T23:36:46.395Z,96074.86
2022-09-20T23:39:15.120Z,96071.25
2022-09-20T23:41:46.969Z,96070.65
2022-09-20T23:44:16.593Z,96069.77
2022-09-20T23:46:44.525Z,96069.30
2022-09-20T23:49:12.423Z,96071.23
2022-09-20T23:51:40.328Z,96068.96
2022-09-20T23:54:08.248Z,96068.86
2022-09-20T23:56:36.453Z,96070.22
2022-09-20T23:59:04.313Z,96069.85
